Terminal Aerodrome Forecast
Issued by NWS

Home | Current Version | Previous Version | Graphics & Text | Print | Product List | Glossary On
Versions: 1 2 3 4 5 6 7 8 9 10 11 12 13 14 15
000
FTUS43 KPAH 041720
TAFOWB
TAF
KOWB 041720Z 0418/0518 24078KT P6SM BKN035
     FM041930 32013G24KT P6SM BKN035
     FM042300 32006KT P6SM SCT040 BKN050
     FM051400 34012G22KT P6SM BKN050=

USA.gov is the U.S. government's official web portal to all federal, state and local government web resources and services.